Time;durP1;ratioP1;P1;durP2;ratioP2;P2;SDS_P1;SDS_P2;PMS_P1;PMS_P2;Temp;Humidity;BMP_temperature;BMP_pressure;BME280_temperature;BME280_humidity;BME280_pressure;Samples;Min_cycle;Max_cycle;Signal;HPM_P1;HPM_P2
2023/12/05 00:01:14;;;;;;;588.10;199.48;;;;;;;;;;5028081;28;20022;-80
2023/12/05 00:03:40;;;;;;;606.75;210.55;;;;;;;;;;5010707;28;20040;-79
2023/12/05 00:06:12;;;;;;;597.70;205.18;;;;;;;;;;5028659;28;20485;-80
2023/12/05 00:08:38;;;;;;;596.92;205.57;;;;;;;;;;5028392;28;20029;-80
2023/12/05 00:11:05;;;;;;;595.30;204.82;;;;;;;;;;5028295;28;20592;-80
2023/12/05 00:13:31;;;;;;;602.58;208.73;;;;;;;;;;5029427;28;20025;-80
2023/12/05 00:15:57;;;;;;;602.00;208.60;;;;;;;;;;5029001;28;20030;-79
2023/12/05 00:18:24;;;;;;;600.05;208.10;;;;;;;;;;5027757;28;20041;-80
2023/12/05 00:20:50;;;;;;;611.22;214.93;;;;;;;;;;5028406;28;20101;-80
2023/12/05 00:23:16;;;;;;;599.83;209.02;;;;;;;;;;5028067;28;20091;-80
2023/12/05 00:25:43;;;;;;;523.03;172.40;;;;;;;;;;5028498;28;20026;-80
2023/12/05 00:28:09;;;;;;;465.17;146.95;;;;;;;;;;5028451;28;20474;-80
2023/12/05 00:30:35;;;;;;;517.35;169.00;;;;;;;;;;5010420;28;20041;-80
2023/12/05 00:33:01;;;;;;;529.45;175.38;;;;;;;;;;5028360;28;20512;-80
2023/12/05 00:35:27;;;;;;;560.13;189.52;;;;;;;;;;5027866;28;20033;-80
2023/12/05 00:37:53;;;;;;;559.25;187.75;;;;;;;;;;5010415;28;20177;-79
2023/12/05 00:40:19;;;;;;;575.30;197.43;;;;;;;;;;5030209;28;20036;-79
2023/12/05 00:42:45;;;;;;;576.95;199.25;;;;;;;;;;5031514;28;20030;-80
2023/12/05 00:45:14;;;;;;;579.45;199.95;;;;;;;;;;5031526;28;20029;-80
2023/12/05 00:47:41;;;;;;;578.28;200.73;;;;;;;;;;5031316;28;20036;-80
2023/12/05 00:50:07;;;;;;;574.67;197.30;;;;;;;;;;5031822;28;20040;-80
2023/12/05 00:52:34;;;;;;;555.22;187.05;;;;;;;;;;5032326;28;20401;-80
2023/12/05 00:55:00;;;;;;;425.02;140.48;;;;;;;;;;5014389;28;20501;-80
2023/12/05 00:57:26;;;;;;;363.52;119.47;;;;;;;;;;5031727;28;20033;-80
2023/12/05 00:59:52;;;;;;;408.52;135.07;;;;;;;;;;5031632;28;20140;-80
2023/12/05 01:02:18;;;;;;;453.17;145.68;;;;;;;;;;5031439;28;20038;-80
2023/12/05 01:04:44;;;;;;;403.92;131.38;;;;;;;;;;5031495;28;20444;-80
2023/12/05 01:07:12;;;;;;;339.05;114.50;;;;;;;;;;5031502;28;20045;-80
2023/12/05 01:09:39;;;;;;;355.52;116.72;;;;;;;;;;5031365;28;20565;-80
2023/12/05 01:12:05;;;;;;;353.10;117.18;;;;;;;;;;5013662;28;20452;-80
2023/12/05 01:14:31;;;;;;;326.25;108.90;;;;;;;;;;5032070;28;20029;-80
2023/12/05 01:16:57;;;;;;;319.27;106.57;;;;;;;;;;5031108;28;20104;-79
2023/12/05 01:19:23;;;;;;;324.92;109.95;;;;;;;;;;5030476;28;20032;-80
2023/12/05 01:21:49;;;;;;;361.73;118.43;;;;;;;;;;5030787;28;20029;-80
2023/12/05 01:24:15;;;;;;;365.40;120.15;;;;;;;;;;5031204;28;20021;-80
2023/12/05 01:26:41;;;;;;;367.85;121.35;;;;;;;;;;5031250;28;20057;-80
2023/12/05 01:29:07;;;;;;;320.98;107.03;;;;;;;;;;5030909;28;20087;-80
2023/12/05 01:31:33;;;;;;;326.08;109.70;;;;;;;;;;5031355;28;20028;-80
2023/12/05 01:33:59;;;;;;;324.58;108.75;;;;;;;;;;5030850;28;20025;-80
2023/12/05 01:36:30;;;;;;;342.42;114.60;;;;;;;;;;5030961;28;20022;-79
2023/12/05 01:38:56;;;;;;;333.60;111.28;;;;;;;;;;5012908;28;20721;-80
2023/12/05 01:41:22;;;;;;;338.83;113.55;;;;;;;;;;5020179;28;20056;-80
2023/12/05 01:43:49;;;;;;;326.98;110.78;;;;;;;;;;5050661;28;20381;-79
2023/12/05 01:46:15;;;;;;;302.23;103.07;;;;;;;;;;5022689;28;20489;-80
2023/12/05 01:48:41;;;;;;;310.02;105.53;;;;;;;;;;5030607;28;20029;-79
2023/12/05 01:51:09;;;;;;;326.08;109.10;;;;;;;;;;5030965;28;20488;-80
2023/12/05 01:53:35;;;;;;;326.73;109.53;;;;;;;;;;5030979;28;20025;-79
2023/12/05 01:56:02;;;;;;;326.05;109.60;;;;;;;;;;5029894;28;20105;-79
2023/12/05 01:58:29;;;;;;;308.83;103.57;;;;;;;;;;5030517;28;20108;-80
2023/12/05 02:00:55;;;;;;;307.73;103.70;;;;;;;;;;5030351;28;20026;-80
2023/12/05 02:03:21;;;;;;;293.77;100.35;;;;;;;;;;5029813;28;20040;-80
2023/12/05 02:05:47;;;;;;;314.20;105.65;;;;;;;;;;5030499;28;20035;-80
2023/12/05 02:08:19;;;;;;;319.73;107.38;;;;;;;;;;5030244;28;20393;-80
2023/12/05 02:10:45;;;;;;;331.17;111.45;;;;;;;;;;5030006;28;20035;-80
2023/12/05 02:13:11;;;;;;;325.85;108.93;;;;;;;;;;5030289;28;20096;-80
2023/12/05 02:15:37;;;;;;;329.75;109.63;;;;;;;;;;5031069;28;20083;-80
2023/12/05 02:18:09;;;;;;;331.83;110.28;;;;;;;;;;5030955;28;20398;-80
2023/12/05 02:20:44;;;;;;;338.50;112.28;;;;;;;;;;5030890;28;20100;-80
2023/12/05 02:23:17;;;;;;;345.63;114.97;;;;;;;;;;5029850;28;20033;-80
2023/12/05 02:25:58;;;;;;;351.60;117.05;;;;;;;;;;5029426;28;20029;-80
2023/12/05 02:28:24;;;;;;;347.05;115.82;;;;;;;;;;5029829;28;20113;-80
2023/12/05 02:30:51;;;;;;;360.00;118.93;;;;;;;;;;5029609;28;20025;-80
2023/12/05 02:33:17;;;;;;;357.65;118.82;;;;;;;;;;5029467;28;20029;-80
2023/12/05 02:35:43;;;;;;;349.85;116.40;;;;;;;;;;5029962;28;20104;-80
2023/12/05 02:38:09;;;;;;;350.02;116.32;;;;;;;;;;5030476;28;20033;-80
2023/12/05 02:40:41;;;;;;;360.70;118.38;;;;;;;;;;5030366;28;20029;-80
2023/12/05 02:43:12;;;;;;;345.15;115.50;;;;;;;;;;5030457;28;20087;-80
2023/12/05 02:45:40;;;;;;;348.73;116.15;;;;;;;;;;5030522;28;20538;-80
2023/12/05 02:48:07;;;;;;;355.67;117.40;;;;;;;;;;5029974;28;20087;-79
2023/12/05 02:50:33;;;;;;;345.67;115.25;;;;;;;;;;5029314;28;20052;-79
2023/12/05 02:52:59;;;;;;;363.92;119.55;;;;;;;;;;5029052;28;20026;-80
2023/12/05 02:55:25;;;;;;;351.92;118.10;;;;;;;;;;5029520;28;20041;-80
2023/12/05 02:57:51;;;;;;;361.23;118.63;;;;;;;;;;5029476;28;20029;-79
2023/12/05 03:00:17;;;;;;;357.30;118.55;;;;;;;;;;5028965;28;20029;-80
2023/12/05 03:02:43;;;;;;;357.05;118.53;;;;;;;;;;5029241;28;20041;-80
2023/12/05 03:05:09;;;;;;;362.27;119.78;;;;;;;;;;5011661;28;20025;-80
2023/12/05 03:07:36;;;;;;;355.98;117.93;;;;;;;;;;5011414;28;20045;-79
2023/12/05 03:10:02;;;;;;;336.63;113.32;;;;;;;;;;5028878;28;20037;-81
2023/12/05 03:12:31;;;;;;;343.17;114.90;;;;;;;;;;5028762;28;20097;-80
2023/12/05 03:14:57;;;;;;;340.85;114.80;;;;;;;;;;5029171;28;20485;-80
2023/12/05 03:17:23;;;;;;;336.35;114.03;;;;;;;;;;5029070;28;20128;-80
2023/12/05 03:19:49;;;;;;;326.92;110.63;;;;;;;;;;5028643;28;20101;-80
2023/12/05 03:22:15;;;;;;;322.02;108.88;;;;;;;;;;5029129;28;20033;-80
2023/12/05 03:24:41;;;;;;;299.50;102.43;;;;;;;;;;5029640;28;20412;-79
2023/12/05 03:27:07;;;;;;;294.05;100.88;;;;;;;;;;5029301;28;20029;-80
2023/12/05 03:29:33;;;;;;;308.58;105.15;;;;;;;;;;5028613;28;20447;-80
2023/12/05 03:31:59;;;;;;;318.63;108.63;;;;;;;;;;5028636;28;20068;-79
2023/12/05 03:34:25;;;;;;;310.10;105.82;;;;;;;;;;5028888;28;20034;-80
2023/12/05 03:36:51;;;;;;;308.45;105.45;;;;;;;;;;5033178;28;20025;-83
2023/12/05 03:39:17;;;;;;;315.23;107.78;;;;;;;;;;5029484;28;20442;-81
2023/12/05 03:41:45;;;;;;;316.00;107.43;;;;;;;;;;5038792;28;20083;-81
2023/12/05 03:44:12;;;;;;;314.10;106.75;;;;;;;;;;5049540;28;20065;-80
2023/12/05 03:46:38;;;;;;;321.38;108.78;;;;;;;;;;5048275;28;20389;-81
2023/12/05 03:49:04;;;;;;;319.77;108.30;;;;;;;;;;5013772;28;20041;-83
2023/12/05 03:51:30;;;;;;;332.95;112.63;;;;;;;;;;5027920;28;20428;-81
2023/12/05 03:53:56;;;;;;;340.20;114.75;;;;;;;;;;5027112;28;20075;-83
2023/12/05 03:56:22;;;;;;;313.55;106.75;;;;;;;;;;5010417;28;20113;-80
2023/12/05 03:58:48;;;;;;;328.30;110.13;;;;;;;;;;5019731;28;20104;-81
2023/12/05 04:01:16;;;;;;;314.45;106.65;;;;;;;;;;5024561;28;20017;-82
2023/12/05 04:03:42;;;;;;;328.98;110.55;;;;;;;;;;5027790;28;20029;-82
2023/12/05 04:06:08;;;;;;;320.30;107.93;;;;;;;;;;5026982;28;20104;-82
2023/12/05 04:08:34;;;;;;;317.17;107.63;;;;;;;;;;5025446;28;20030;-82
2023/12/05 04:11:00;;;;;;;313.95;106.80;;;;;;;;;;5026490;28;20034;-81
2023/12/05 04:13:26;;;;;;;306.13;104.00;;;;;;;;;;5027905;28;20025;-82
2023/12/05 04:15:52;;;;;;;320.70;108.57;;;;;;;;;;5028288;28;20033;-83
2023/12/05 04:18:18;;;;;;;302.58;102.95;;;;;;;;;;5031252;28;20040;-82
2023/12/05 04:20:44;;;;;;;293.67;99.50;;;;;;;;;;5032713;28;20025;-81
2023/12/05 04:23:10;;;;;;;288.20;98.20;;;;;;;;;;5031493;28;20535;-82
2023/12/05 04:25:36;;;;;;;283.85;97.57;;;;;;;;;;5031881;28;20065;-82
2023/12/05 04:28:02;;;;;;;289.58;99.35;;;;;;;;;;5031226;28;20417;-83
2023/12/05 04:30:28;;;;;;;179.65;69.25;;;;;;;;;;5031618;28;20428;-82
2023/12/05 04:32:54;;;;;;;311.70;106.53;;;;;;;;;;5013076;28;20017;-82
2023/12/05 04:35:20;;;;;;;87.35;45.30;;;;;;;;;;5034420;28;20032;-82
2023/12/05 04:37:46;;;;;;;206.48;75.38;;;;;;;;;;5032454;28;20026;-81
2023/12/05 04:40:12;;;;;;;249.93;89.53;;;;;;;;;;5032487;28;20025;-82
2023/12/05 04:42:38;;;;;;;285.80;98.80;;;;;;;;;;5049583;28;20025;-81
2023/12/05 04:45:05;;;;;;;305.65;104.57;;;;;;;;;;5051833;28;20025;-82
2023/12/05 04:47:31;;;;;;;317.15;107.95;;;;;;;;;;5051785;28;20024;-83
2023/12/05 04:49:56;;;;;;;315.55;106.53;;;;;;;;;;5051521;28;20097;-82
2023/12/05 04:52:22;;;;;;;326.00;109.28;;;;;;;;;;5051442;28;20542;-81
2023/12/05 04:54:48;;;;;;;320.50;107.97;;;;;;;;;;5051493;28;20037;-83
2023/12/05 04:57:14;;;;;;;330.13;110.85;;;;;;;;;;5052485;28;20024;-87
2023/12/05 04:59:40;;;;;;;334.02;112.32;;;;;;;;;;5051540;28;20159;-87
2023/12/05 05:02:06;;;;;;;332.08;110.93;;;;;;;;;;5051395;28;20037;-87
2023/12/05 05:04:32;;;;;;;331.08;111.32;;;;;;;;;;5051246;28;20021;-86
2023/12/05 05:06:58;;;;;;;340.23;112.88;;;;;;;;;;5051254;28;20032;-82
2023/12/05 05:09:24;;;;;;;337.17;113.32;;;;;;;;;;5051356;28;20111;-88
2023/12/05 05:11:50;;;;;;;330.13;111.00;;;;;;;;;;5025425;28;20390;-85
2023/12/05 05:14:16;;;;;;;326.00;109.05;;;;;;;;;;5032070;28;20034;-82
2023/12/05 05:16:42;;;;;;;329.17;111.05;;;;;;;;;;5030954;28;20112;-85
2023/12/05 05:19:08;;;;;;;326.83;109.78;;;;;;;;;;5031163;28;20311;-85
2023/12/05 05:21:34;;;;;;;336.70;112.47;;;;;;;;;;5031019;28;20025;-81
2023/12/05 05:24:00;;;;;;;330.17;112.00;;;;;;;;;;5030956;28;20038;-86
2023/12/05 05:26:26;;;;;;;314.20;107.32;;;;;;;;;;5030513;28;20031;-81
2023/12/05 05:28:52;;;;;;;300.90;102.72;;;;;;;;;;5030913;28;20525;-81
2023/12/05 05:31:18;;;;;;;320.48;107.78;;;;;;;;;;5031870;28;20075;-80
2023/12/05 05:33:44;;;;;;;301.58;103.43;;;;;;;;;;5031233;28;20546;-80
2023/12/05 05:36:13;;;;;;;289.20;99.00;;;;;;;;;;5030775;28;20033;-81
2023/12/05 05:38:39;;;;;;;279.48;96.95;;;;;;;;;;5029872;28;20029;-82
2023/12/05 05:41:06;;;;;;;289.23;101.20;;;;;;;;;;5035447;28;20029;-83
2023/12/05 05:43:32;;;;;;;281.63;97.60;;;;;;;;;;5023212;28;20486;-81
2023/12/05 05:45:58;;;;;;;280.75;98.32;;;;;;;;;;5026383;28;20450;-81
2023/12/05 05:48:24;;;;;;;276.95;96.72;;;;;;;;;;5030327;28;20108;-81
2023/12/05 05:50:50;;;;;;;262.85;92.72;;;;;;;;;;5030872;28;20033;-86
2023/12/05 05:53:16;;;;;;;261.88;92.63;;;;;;;;;;5031095;28;20052;-82
2023/12/05 05:55:43;;;;;;;262.17;92.32;;;;;;;;;;5030541;28;20465;-84
2023/12/05 05:58:12;;;;;;;267.67;94.22;;;;;;;;;;5030546;28;20385;-81
2023/12/05 06:00:38;;;;;;;266.17;93.65;;;;;;;;;;5012513;28;20536;-82
2023/12/05 06:03:04;;;;;;;263.13;92.38;;;;;;;;;;5030067;28;20033;-81
2023/12/05 06:05:30;;;;;;;268.02;94.50;;;;;;;;;;5030286;28;20053;-84
2023/12/05 06:07:56;;;;;;;264.67;92.95;;;;;;;;;;5012386;28;20068;-81
2023/12/05 06:10:22;;;;;;;261.50;91.20;;;;;;;;;;5030312;28;20459;-81
2023/12/05 06:12:48;;;;;;;250.48;88.85;;;;;;;;;;5031194;28;20028;-81
2023/12/05 06:15:14;;;;;;;250.20;88.43;;;;;;;;;;5030227;28;20104;-84
2023/12/05 06:17:40;;;;;;;264.02;91.97;;;;;;;;;;5030200;28;20022;-80
2023/12/05 06:20:06;;;;;;;269.92;93.63;;;;;;;;;;5030178;28;20048;-80
2023/12/05 06:22:32;;;;;;;271.80;95.35;;;;;;;;;;5030037;28;20091;-81
2023/12/05 06:24:58;;;;;;;259.42;92.13;;;;;;;;;;5030119;28;20026;-81
2023/12/05 06:27:24;;;;;;;259.05;91.45;;;;;;;;;;5030076;28;20493;-80
2023/12/05 06:29:50;;;;;;;242.93;86.40;;;;;;;;;;5030738;28;20489;-81
2023/12/05 06:32:16;;;;;;;260.63;90.95;;;;;;;;;;5029971;28;20080;-82
2023/12/05 06:34:42;;;;;;;257.60;90.40;;;;;;;;;;5029967;28;20826;-81
2023/12/05 06:37:08;;;;;;;271.27;94.53;;;;;;;;;;5029757;28;20022;-80
2023/12/05 06:39:35;;;;;;;259.70;91.53;;;;;;;;;;5028899;28;20032;-81
2023/12/05 06:42:01;;;;;;;260.58;91.25;;;;;;;;;;5029716;28;20033;-80
2023/12/05 06:44:27;;;;;;;259.05;90.47;;;;;;;;;;5029682;28;20037;-81
2023/12/05 06:46:53;;;;;;;248.90;87.75;;;;;;;;;;5030386;28;20021;-80
2023/12/05 06:49:19;;;;;;;249.48;87.22;;;;;;;;;;5030442;28;20040;-81
2023/12/05 06:51:45;;;;;;;258.58;90.32;;;;;;;;;;5029446;28;20025;-82
2023/12/05 06:54:11;;;;;;;264.90;92.97;;;;;;;;;;5029509;28;20028;-81
2023/12/05 06:56:37;;;;;;;275.08;94.95;;;;;;;;;;5029480;28;20068;-80
2023/12/05 06:59:03;;;;;;;269.52;94.07;;;;;;;;;;5029429;28;20528;-82
2023/12/05 07:01:29;;;;;;;276.48;95.00;;;;;;;;;;5029383;28;20034;-81
2023/12/05 07:03:55;;;;;;;267.30;93.72;;;;;;;;;;5029565;28;20028;-82
2023/12/05 07:06:22;;;;;;;249.23;87.72;;;;;;;;;;5012427;28;20026;-83
2023/12/05 07:08:47;;;;;;;267.85;92.32;;;;;;;;;;5029338;28;20039;-81
2023/12/05 07:11:13;;;;;;;272.98;93.55;;;;;;;;;;5029333;28;20104;-81
2023/12/05 07:13:39;;;;;;;269.30;93.07;;;;;;;;;;5029534;28;20404;-81
2023/12/05 07:16:06;;;;;;;267.23;93.60;;;;;;;;;;5029300;28;20577;-80
2023/12/05 07:18:32;;;;;;;271.65;94.82;;;;;;;;;;5029120;28;20021;-81
2023/12/05 07:20:58;;;;;;;263.52;92.40;;;;;;;;;;5011371;28;20025;-81
2023/12/05 07:23:24;;;;;;;266.33;93.38;;;;;;;;;;5029850;28;20469;-81
2023/12/05 07:25:53;;;;;;;265.08;92.30;;;;;;;;;;5029941;28;20536;-81
2023/12/05 07:28:19;;;;;;;273.92;93.72;;;;;;;;;;5029021;28;20561;-81
2023/12/05 07:30:45;;;;;;;258.35;91.30;;;;;;;;;;5029010;28;20355;-82
2023/12/05 07:33:11;;;;;;;267.30;93.10;;;;;;;;;;5028961;28;20022;-81
2023/12/05 07:35:37;;;;;;;274.20;95.90;;;;;;;;;;5028851;28;20033;-81
2023/12/05 07:38:03;;;;;;;288.30;97.40;;;;;;;;;;5028964;28;20033;-80
2023/12/05 07:40:29;;;;;;;260.70;91.80;;;;;;;;;;5011310;28;20032;-81
2023/12/05 07:42:55;;;;;;;262.30;91.47;;;;;;;;;;5029747;28;20049;-83
2023/12/05 07:45:21;;;;;;;258.23;90.05;;;;;;;;;;5029766;28;20029;-81
2023/12/05 07:47:48;;;;;;;251.45;88.93;;;;;;;;;;5028889;28;20389;-81
2023/12/05 07:50:14;;;;;;;261.73;91.97;;;;;;;;;;5030074;28;20120;-81
2023/12/05 07:52:40;;;;;;;253.60;89.70;;;;;;;;;;5032913;28;20559;-81
2023/12/05 07:55:06;;;;;;;247.27;88.40;;;;;;;;;;5032935;28;20026;-81
2023/12/05 07:57:32;;;;;;;244.98;87.50;;;;;;;;;;5015138;28;20049;-80
2023/12/05 07:59:59;;;;;;;244.27;86.10;;;;;;;;;;5032671;28;20398;-80
2023/12/05 08:02:25;;;;;;;246.60;87.15;;;;;;;;;;5033477;28;20535;-80
2023/12/05 08:04:51;;;;;;;243.73;85.65;;;;;;;;;;5032706;28;20025;-80
2023/12/05 08:07:17;;;;;;;235.63;83.22;;;;;;;;;;5032573;28;20033;-81
2023/12/05 08:09:43;;;;;;;219.65;78.88;;;;;;;;;;5032520;28;20037;-80
2023/12/05 08:12:09;;;;;;;240.27;84.60;;;;;;;;;;5032472;28;20548;-82
2023/12/05 08:14:36;;;;;;;239.93;86.30;;;;;;;;;;5032657;28;20045;-81
2023/12/05 08:17:03;;;;;;;238.43;85.88;;;;;;;;;;5032308;28;20091;-83
2023/12/05 08:19:29;;;;;;;234.45;83.80;;;;;;;;;;5032400;28;20028;-81
2023/12/05 08:21:55;;;;;;;186.10;70.28;;;;;;;;;;5033164;28;20104;-81
2023/12/05 08:24:21;;;;;;;225.55;79.78;;;;;;;;;;5032305;28;20026;-81
2023/12/05 08:26:47;;;;;;;223.57;79.70;;;;;;;;;;5032203;28;20397;-81
2023/12/05 08:29:13;;;;;;;224.85;81.20;;;;;;;;;;5014486;28;20029;-81
2023/12/05 08:31:39;;;;;;;225.55;81.28;;;;;;;;;;5032118;28;20025;-83
2023/12/05 08:34:05;;;;;;;236.35;84.00;;;;;;;;;;5032147;28;20029;-83
2023/12/05 08:36:31;;;;;;;238.98;83.82;;;;;;;;;;5032156;28;20104;-82
2023/12/05 08:38:57;;;;;;;232.93;82.57;;;;;;;;;;5032885;28;20029;-81
2023/12/05 08:41:23;;;;;;;238.38;84.47;;;;;;;;;;5032010;28;20029;-81
2023/12/05 08:43:49;;;;;;;236.52;83.43;;;;;;;;;;5014355;28;20269;-82
2023/12/05 08:46:15;;;;;;;242.85;86.47;;;;;;;;;;5031761;28;20029;-80
2023/12/05 08:48:41;;;;;;;236.57;83.10;;;;;;;;;;5031810;28;20088;-84
2023/12/05 08:51:07;;;;;;;236.07;83.82;;;;;;;;;;5031781;28;20068;-81
2023/12/05 08:53:33;;;;;;;229.05;81.90;;;;;;;;;;5013988;28;20025;-81
2023/12/05 08:56:00;;;;;;;225.50;80.55;;;;;;;;;;5032682;28;20029;-81
2023/12/05 08:58:26;;;;;;;226.77;81.13;;;;;;;;;;5032557;28;20028;-81
2023/12/05 09:00:52;;;;;;;228.38;81.65;;;;;;;;;;5031524;28;20026;-80
2023/12/05 09:03:18;;;;;;;229.30;80.53;;;;;;;;;;5030389;28;20041;-80
2023/12/05 09:05:45;;;;;;;224.13;80.63;;;;;;;;;;5031511;28;20397;-81
2023/12/05 09:08:11;;;;;;;217.07;78.18;;;;;;;;;;5031539;28;20107;-83
2023/12/05 09:10:36;;;;;;;224.85;80.07;;;;;;;;;;5031481;28;20473;-82
2023/12/05 09:13:02;;;;;;;210.23;76.43;;;;;;;;;;5031416;28;20021;-80
2023/12/05 09:15:28;;;;;;;216.18;77.10;;;;;;;;;;5014513;28;20082;-80
2023/12/05 09:17:54;;;;;;;251.80;86.38;;;;;;;;;;5031349;28;20017;-81
2023/12/05 09:20:20;;;;;;;262.23;90.80;;;;;;;;;;5031398;28;20428;-82
2023/12/05 09:22:46;;;;;;;262.55;90.72;;;;;;;;;;5031303;28;20022;-81
2023/12/05 09:25:12;;;;;;;272.75;92.60;;;;;;;;;;5031149;28;20021;-80
2023/12/05 09:27:38;;;;;;;264.13;90.22;;;;;;;;;;5031144;28;20071;-82
2023/12/05 09:30:05;;;;;;;234.35;82.25;;;;;;;;;;5030828;28;20043;-80
2023/12/05 09:32:31;;;;;;;237.82;82.75;;;;;;;;;;5031864;28;20014;-83
2023/12/05 09:34:57;;;;;;;232.82;81.63;;;;;;;;;;5031855;28;20045;-81
2023/12/05 09:37:23;;;;;;;235.60;82.72;;;;;;;;;;5030954;28;20021;-81
2023/12/05 09:39:49;;;;;;;241.48;82.25;;;;;;;;;;5030997;28;20041;-81
2023/12/05 09:42:18;;;;;;;238.05;84.65;;;;;;;;;;5030847;28;20549;-81
2023/12/05 09:44:46;;;;;;;243.05;84.93;;;;;;;;;;5030755;28;20497;-81
2023/12/05 09:47:13;;;;;;;233.82;83.53;;;;;;;;;;5030935;28;20055;-81
2023/12/05 09:49:40;;;;;;;244.05;85.15;;;;;;;;;;5030622;28;20033;-83
2023/12/05 09:52:07;;;;;;;232.20;82.22;;;;;;;;;;5030761;28;20466;-80
2023/12/05 09:54:33;;;;;;;236.52;82.47;;;;;;;;;;5031489;28;20025;-82
2023/12/05 09:57:00;;;;;;;239.48;82.75;;;;;;;;;;5031465;28;20036;-81
2023/12/05 09:59:26;;;;;;;240.25;82.90;;;;;;;;;;5030605;28;20116;-81
2023/12/05 10:01:56;;;;;;;236.73;83.55;;;;;;;;;;5030363;28;20030;-81
2023/12/05 10:04:22;;;;;;;235.30;82.82;;;;;;;;;;5030443;28;20029;-80
2023/12/05 10:06:48;;;;;;;243.73;85.68;;;;;;;;;;5030362;28;20022;-82
2023/12/05 10:09:15;;;;;;;233.70;82.88;;;;;;;;;;5030289;28;20124;-80
2023/12/05 10:11:41;;;;;;;241.77;84.65;;;;;;;;;;5030378;28;20025;-81
2023/12/05 10:14:08;;;;;;;222.60;79.50;;;;;;;;;;5030178;28;20030;-81
2023/12/05 10:16:35;;;;;;;236.98;81.57;;;;;;;;;;5031171;28;20029;-81
2023/12/05 10:19:02;;;;;;;247.68;82.70;;;;;;;;;;5031035;28;20113;-83
2023/12/05 10:21:28;;;;;;;227.50;80.15;;;;;;;;;;5012386;28;20465;-80
2023/12/05 10:23:54;;;;;;;222.80;78.70;;;;;;;;;;5030150;28;20026;-81
2023/12/05 10:26:20;;;;;;;227.90;79.28;;;;;;;;;;5029987;28;20108;-81
2023/12/05 10:28:53;;;;;;;240.52;82.88;;;;;;;;;;5012092;28;20171;-82
2023/12/05 10:31:19;;;;;;;231.45;80.75;;;;;;;;;;5012271;28;20032;-81
2023/12/05 10:33:46;;;;;;;231.05;78.60;;;;;;;;;;5029950;28;20018;-81
2023/12/05 10:36:12;;;;;;;233.38;82.05;;;;;;;;;;5012083;28;20053;-81
2023/12/05 10:38:38;;;;;;;231.90;81.28;;;;;;;;;;5029867;28;20025;-81
2023/12/05 10:41:04;;;;;;;245.93;83.97;;;;;;;;;;5030598;28;20036;-82
2023/12/05 10:43:30;;;;;;;245.63;84.05;;;;;;;;;;5029716;28;20049;-81
2023/12/05 10:45:57;;;;;;;246.07;82.00;;;;;;;;;;5029686;28;20723;-82
2023/12/05 10:48:26;;;;;;;265.20;89.75;;;;;;;;;;5029663;28;20527;-81
2023/12/05 10:50:53;;;;;;;256.60;86.72;;;;;;;;;;5029660;28;20075;-81
2023/12/05 10:53:19;;;;;;;248.10;84.22;;;;;;;;;;5029497;28;20075;-81
2023/12/05 10:55:45;;;;;;;243.98;84.05;;;;;;;;;;5029494;28;20029;-80
2023/12/05 10:58:11;;;;;;;236.63;81.72;;;;;;;;;;5011792;28;20037;-82
2023/12/05 11:00:38;;;;;;;191.52;69.85;;;;;;;;;;5011833;28;20036;-81
2023/12/05 11:03:04;;;;;;;227.93;78.30;;;;;;;;;;5012404;28;20072;-81
2023/12/05 11:05:31;;;;;;;230.68;79.60;;;;;;;;;;5029472;28;20056;-81
2023/12/05 11:07:57;;;;;;;225.07;78.00;;;;;;;;;;5029186;28;21045;-80
2023/12/05 11:10:23;;;;;;;232.60;80.70;;;;;;;;;;5029410;28;20033;-81
2023/12/05 11:12:50;;;;;;;231.57;80.32;;;;;;;;;;5029308;28;20033;-81
2023/12/05 11:15:17;;;;;;;240.07;82.07;;;;;;;;;;5029311;28;20032;-81
2023/12/05 11:17:49;;;;;;;238.38;81.85;;;;;;;;;;5029202;28;20025;-81
2023/12/05 11:20:34;;;;;;;242.68;82.63;;;;;;;;;;5029156;28;20033;-81
2023/12/05 11:23:06;;;;;;;240.88;81.18;;;;;;;;;;5029056;28;20021;-81
2023/12/05 11:25:35;;;;;;;246.25;81.65;;;;;;;;;;5028568;28;20485;-81
2023/12/05 11:28:04;;;;;;;245.18;82.90;;;;;;;;;;5029012;28;20478;-83
2023/12/05 11:30:39;;;;;;;230.23;79.22;;;;;;;;;;5029002;28;20033;-81
2023/12/05 11:33:14;;;;;;;233.80;80.72;;;;;;;;;;5029877;28;20030;-81
2023/12/05 11:35:47;;;;;;;236.80;80.55;;;;;;;;;;5029051;28;20029;-81
2023/12/05 11:38:14;;;;;;;246.23;83.88;;;;;;;;;;5029021;28;20026;-81
2023/12/05 11:40:41;;;;;;;235.13;79.65;;;;;;;;;;5028966;28;20025;-81
2023/12/05 11:43:08;;;;;;;235.25;80.00;;;;;;;;;;5029616;28;20026;-81
2023/12/05 11:45:38;;;;;;;224.77;77.40;;;;;;;;;;5029771;28;20028;-84
2023/12/05 11:48:05;;;;;;;232.20;78.90;;;;;;;;;;5011929;28;20057;-81
2023/12/05 11:50:39;;;;;;;263.95;86.28;;;;;;;;;;5028780;28;20041;-81
2023/12/05 11:53:08;;;;;;;250.43;83.85;;;;;;;;;;5029775;28;20022;-81
2023/12/05 11:55:34;;;;;;;248.55;83.07;;;;;;;;;;5028861;28;20028;-81
2023/12/05 11:58:00;;;;;;;228.45;78.50;;;;;;;;;;5028693;28;20306;-81
2023/12/05 12:00:26;;;;;;;223.02;76.53;;;;;;;;;;5028720;28;20109;-84
2023/12/05 12:02:59;;;;;;;178.68;65.03;;;;;;;;;;5028492;28;20059;-81
2023/12/05 12:05:25;;;;;;;223.52;77.40;;;;;;;;;;5028737;28;20105;-81
2023/12/05 12:07:52;;;;;;;222.65;77.07;;;;;;;;;;5028720;28;20057;-82
2023/12/05 12:10:18;;;;;;;223.68;76.97;;;;;;;;;;5028576;28;20045;-81
2023/12/05 12:12:48;;;;;;;231.88;78.60;;;;;;;;;;5028699;28;20037;-84
2023/12/05 12:15:19;;;;;;;223.40;76.88;;;;;;;;;;5028623;28;20025;-84
2023/12/05 12:17:45;;;;;;;233.10;78.75;;;;;;;;;;5028755;28;20071;-81
2023/12/05 12:20:12;;;;;;;213.98;74.22;;;;;;;;;;5028614;28;20033;-81
2023/12/05 12:22:38;;;;;;;218.63;74.30;;;;;;;;;;5011691;28;20064;-82
2023/12/05 12:25:05;;;;;;;212.55;72.88;;;;;;;;;;5028484;28;20026;-83
2023/12/05 12:27:35;;;;;;;191.43;68.22;;;;;;;;;;5010706;28;20124;-82
2023/12/05 12:30:01;;;;;;;208.35;72.40;;;;;;;;;;5028501;28;20395;-82
2023/12/05 12:32:27;;;;;;;212.07;72.75;;;;;;;;;;5028427;28;20478;-81
2023/12/05 12:34:53;;;;;;;200.35;71.47;;;;;;;;;;5028433;28;20033;-81
2023/12/05 12:37:19;;;;;;;218.85;75.72;;;;;;;;;;5029736;28;20021;-82
2023/12/05 12:39:45;;;;;;;216.57;74.78;;;;;;;;;;5032056;28;20108;-81
2023/12/05 12:42:12;;;;;;;223.68;76.53;;;;;;;;;;5015177;28;20480;-81
2023/12/05 12:44:38;;;;;;;216.18;73.40;;;;;;;;;;5032957;28;20103;-81
2023/12/05 12:47:04;;;;;;;223.98;75.80;;;;;;;;;;5031973;28;20371;-81
2023/12/05 12:49:30;;;;;;;240.93;81.05;;;;;;;;;;5031893;28;20539;-82
2023/12/05 12:51:56;;;;;;;222.40;77.03;;;;;;;;;;5031869;28;20025;-81
2023/12/05 12:54:25;;;;;;;238.23;79.18;;;;;;;;;;5032250;28;20036;-84
2023/12/05 12:56:51;;;;;;;239.73;81.47;;;;;;;;;;5031797;28;20017;-82
2023/12/05 12:59:17;;;;;;;201.60;70.97;;;;;;;;;;5031745;28;20083;-83
2023/12/05 13:01:44;;;;;;;196.82;68.72;;;;;;;;;;5032368;28;20041;-82
2023/12/05 13:04:13;;;;;;;210.25;72.57;;;;;;;;;;5032429;28;20029;-83
2023/12/05 13:06:46;;;;;;;230.00;79.25;;;;;;;;;;5014572;28;20025;-82
2023/12/05 13:09:25;;;;;;;242.80;84.93;;;;;;;;;;5032530;28;20038;-81
2023/12/05 13:11:51;;;;;;;226.73;77.45;;;;;;;;;;5031471;28;20025;-81
2023/12/05 13:14:19;;;;;;;228.80;77.82;;;;;;;;;;5031560;28;20036;-81
2023/12/05 13:16:45;;;;;;;219.70;74.88;;;;;;;;;;5013688;28;20509;-80
2023/12/05 13:19:27;;;;;;;171.95;63.55;;;;;;;;;;5032185;28;20108;-81
2023/12/05 13:21:53;;;;;;;214.38;73.57;;;;;;;;;;5031478;28;20480;-81
2023/12/05 13:24:21;;;;;;;186.98;66.50;;;;;;;;;;5031317;28;20040;-81
2023/12/05 13:26:47;;;;;;;163.23;61.53;;;;;;;;;;5031295;28;20550;-81
2023/12/05 13:29:13;;;;;;;179.15;64.38;;;;;;;;;;5031989;28;20033;-82
2023/12/05 13:31:39;;;;;;;173.02;64.32;;;;;;;;;;5031082;28;20025;-81
2023/12/05 13:34:05;;;;;;;186.73;67.00;;;;;;;;;;5031041;28;20375;-81
2023/12/05 13:36:32;;;;;;;187.82;68.38;;;;;;;;;;5013345;28;20028;-81
2023/12/05 13:38:58;;;;;;;180.20;66.18;;;;;;;;;;5013282;28;20366;-81
2023/12/05 13:41:24;;;;;;;187.43;66.65;;;;;;;;;;5013162;28;20018;-84
2023/12/05 13:43:51;;;;;;;191.63;68.18;;;;;;;;;;5030863;28;20397;-81
2023/12/05 13:46:17;;;;;;;200.35;68.10;;;;;;;;;;5030842;28;20022;-81
2023/12/05 13:48:44;;;;;;;197.15;68.75;;;;;;;;;;5031112;28;20026;-81
2023/12/05 13:51:10;;;;;;;203.98;69.55;;;;;;;;;;5030759;28;20029;-81
2023/12/05 13:53:36;;;;;;;203.20;70.32;;;;;;;;;;5030748;28;20704;-81
2023/12/05 13:56:02;;;;;;;219.02;74.97;;;;;;;;;;5030672;28;20048;-81